sensor_id;sensor_type;location;lat;lon;timestamp;temperature;humidity
33271;DHT22;53180;51.344;6.152;2023-05-19T00:00:11;11.00;69.00
33271;DHT22;53180;51.344;6.152;2023-05-19T00:02:41;11.00;69.30
33271;DHT22;53180;51.344;6.152;2023-05-19T00:05:12;10.90;69.40
33271;DHT22;53180;51.344;6.152;2023-05-19T00:07:45;10.90;70.00
33271;DHT22;53180;51.344;6.152;2023-05-19T00:10:17;10.80;69.60
33271;DHT22;53180;51.344;6.152;2023-05-19T00:12:46;10.70;70.30
33271;DHT22;53180;51.344;6.152;2023-05-19T00:15:18;10.80;70.80
33271;DHT22;53180;51.344;6.152;2023-05-19T00:17:48;10.70;71.00
33271;DHT22;53180;51.344;6.152;2023-05-19T00:20:18;10.60;70.90
33271;DHT22;53180;51.344;6.152;2023-05-19T00:22:46;10.50;71.90
33271;DHT22;53180;51.344;6.152;2023-05-19T00:25:16;10.50;71.50
33271;DHT22;53180;51.344;6.152;2023-05-19T00:27:44;10.50;71.80
33271;DHT22;53180;51.344;6.152;2023-05-19T00:30:13;10.50;72.00
33271;DHT22;53180;51.344;6.152;2023-05-19T00:32:42;10.40;71.60
33271;DHT22;53180;51.344;6.152;2023-05-19T00:35:10;10.40;71.40
33271;DHT22;53180;51.344;6.152;2023-05-19T00:37:39;10.40;71.60
33271;DHT22;53180;51.344;6.152;2023-05-19T00:40:09;10.30;72.10
33271;DHT22;53180;51.344;6.152;2023-05-19T00:42:39;10.30;72.30
33271;DHT22;53180;51.344;6.152;2023-05-19T00:45:09;10.30;72.30
33271;DHT22;53180;51.344;6.152;2023-05-19T00:47:37;10.20;72.90
33271;DHT22;53180;51.344;6.152;2023-05-19T00:50:06;10.20;72.90
33271;DHT22;53180;51.344;6.152;2023-05-19T00:52:35;10.10;72.80
33271;DHT22;53180;51.344;6.152;2023-05-19T00:55:04;10.10;72.90
33271;DHT22;53180;51.344;6.152;2023-05-19T00:57:34;10.20;73.00
33271;DHT22;53180;51.344;6.152;2023-05-19T01:00:06;10.10;72.60
33271;DHT22;53180;51.344;6.152;2023-05-19T01:02:35;10.10;73.10
33271;DHT22;53180;51.344;6.152;2023-05-19T01:05:06;10.20;72.60
33271;DHT22;53180;51.344;6.152;2023-05-19T01:07:36;10.10;72.80
33271;DHT22;53180;51.344;6.152;2023-05-19T01:10:05;10.00;72.70
33271;DHT22;53180;51.344;6.152;2023-05-19T01:12:34;10.00;73.10
33271;DHT22;53180;51.344;6.152;2023-05-19T01:15:05;9.90;73.70
33271;DHT22;53180;51.344;6.152;2023-05-19T01:17:39;9.90;74.10
33271;DHT22;53180;51.344;6.152;2023-05-19T01:20:18;9.80;73.90
33271;DHT22;53180;51.344;6.152;2023-05-19T01:23:11;9.80;74.10
33271;DHT22;53180;51.344;6.152;2023-05-19T01:26:15;9.80;74.40
33271;DHT22;53180;51.344;6.152;2023-05-19T01:29:15;9.80;74.10
33271;DHT22;53180;51.344;6.152;2023-05-19T01:32:05;9.80;74.00
33271;DHT22;53180;51.344;6.152;2023-05-19T01:34:41;9.70;74.70
33271;DHT22;53180;51.344;6.152;2023-05-19T01:37:12;9.60;74.70
33271;DHT22;53180;51.344;6.152;2023-05-19T01:39:43;9.60;75.00
33271;DHT22;53180;51.344;6.152;2023-05-19T01:42:13;9.50;75.30
33271;DHT22;53180;51.344;6.152;2023-05-19T01:44:43;9.50;75.50
33271;DHT22;53180;51.344;6.152;2023-05-19T01:47:13;9.40;75.80
33271;DHT22;53180;51.344;6.152;2023-05-19T01:49:41;9.30;75.70
33271;DHT22;53180;51.344;6.152;2023-05-19T01:52:10;9.30;76.20
33271;DHT22;53180;51.344;6.152;2023-05-19T01:54:38;9.20;76.20
33271;DHT22;53180;51.344;6.152;2023-05-19T01:57:17;9.20;76.30
33271;DHT22;53180;51.344;6.152;2023-05-19T01:59:58;9.20;76.40
33271;DHT22;53180;51.344;6.152;2023-05-19T02:02:42;9.20;76.60
33271;DHT22;53180;51.344;6.152;2023-05-19T02:05:26;9.10;76.90
33271;DHT22;53180;51.344;6.152;2023-05-19T02:08:04;9.10;77.00
33271;DHT22;53180;51.344;6.152;2023-05-19T02:10:36;9.10;77.00
33271;DHT22;53180;51.344;6.152;2023-05-19T02:13:11;9.00;77.20
33271;DHT22;53180;51.344;6.152;2023-05-19T02:15:41;9.00;77.20
33271;DHT22;53180;51.344;6.152;2023-05-19T02:18:13;8.90;77.60
33271;DHT22;53180;51.344;6.152;2023-05-19T02:20:45;8.90;77.40
33271;DHT22;53180;51.344;6.152;2023-05-19T02:23:14;8.90;77.70
33271;DHT22;53180;51.344;6.152;2023-05-19T02:25:42;8.80;77.90
33271;DHT22;53180;51.344;6.152;2023-05-19T02:28:10;8.80;77.80
33271;DHT22;53180;51.344;6.152;2023-05-19T02:30:39;8.80;77.80
33271;DHT22;53180;51.344;6.152;2023-05-19T02:33:07;8.80;77.90
33271;DHT22;53180;51.344;6.152;2023-05-19T02:35:38;8.80;77.90
33271;DHT22;53180;51.344;6.152;2023-05-19T02:38:06;8.70;78.00
33271;DHT22;53180;51.344;6.152;2023-05-19T02:40:35;8.70;78.10
33271;DHT22;53180;51.344;6.152;2023-05-19T02:43:03;8.70;78.10
33271;DHT22;53180;51.344;6.152;2023-05-19T02:45:32;8.70;78.10
33271;DHT22;53180;51.344;6.152;2023-05-19T02:48:00;8.70;77.90
33271;DHT22;53180;51.344;6.152;2023-05-19T02:50:29;8.60;78.10
33271;DHT22;53180;51.344;6.152;2023-05-19T02:52:59;8.70;78.10
33271;DHT22;53180;51.344;6.152;2023-05-19T02:55:28;8.60;78.00
33271;DHT22;53180;51.344;6.152;2023-05-19T02:57:56;8.50;78.20
33271;DHT22;53180;51.344;6.152;2023-05-19T03:00:24;8.50;78.50
33271;DHT22;53180;51.344;6.152;2023-05-19T03:02:53;8.50;78.50
33271;DHT22;53180;51.344;6.152;2023-05-19T03:05:21;8.40;78.60
33271;DHT22;53180;51.344;6.152;2023-05-19T03:07:49;8.40;78.70
33271;DHT22;53180;51.344;6.152;2023-05-19T03:10:19;8.40;78.70
33271;DHT22;53180;51.344;6.152;2023-05-19T03:12:47;8.40;78.60
33271;DHT22;53180;51.344;6.152;2023-05-19T03:15:16;8.40;78.60
33271;DHT22;53180;51.344;6.152;2023-05-19T03:17:46;8.40;78.40
33271;DHT22;53180;51.344;6.152;2023-05-19T03:20:15;8.30;78.30
33271;DHT22;53180;51.344;6.152;2023-05-19T03:22:43;8.30;78.90
33271;DHT22;53180;51.344;6.152;2023-05-19T03:25:11;8.20;79.10
33271;DHT22;53180;51.344;6.152;2023-05-19T03:27:41;8.20;79.00
33271;DHT22;53180;51.344;6.152;2023-05-19T03:30:11;8.30;78.90
33271;DHT22;53180;51.344;6.152;2023-05-19T03:32:40;8.30;78.80
33271;DHT22;53180;51.344;6.152;2023-05-19T03:35:08;8.30;78.80
33271;DHT22;53180;51.344;6.152;2023-05-19T03:37:37;8.30;78.90
33271;DHT22;53180;51.344;6.152;2023-05-19T03:40:07;8.20;78.80
33271;DHT22;53180;51.344;6.152;2023-05-19T03:42:36;8.20;79.00
33271;DHT22;53180;51.344;6.152;2023-05-19T03:45:07;8.20;78.90
33271;DHT22;53180;51.344;6.152;2023-05-19T03:47:35;8.20;78.70
33271;DHT22;53180;51.344;6.152;2023-05-19T03:50:04;8.20;78.90
33271;DHT22;53180;51.344;6.152;2023-05-19T03:52:33;8.20;79.00
33271;DHT22;53180;51.344;6.152;2023-05-19T03:55:02;8.10;79.10
33271;DHT22;53180;51.344;6.152;2023-05-19T03:57:30;8.10;78.80
33271;DHT22;53180;51.344;6.152;2023-05-19T03:59:59;8.20;79.00
33271;DHT22;53180;51.344;6.152;2023-05-19T04:02:29;8.10;79.10
33271;DHT22;53180;51.344;6.152;2023-05-19T04:04:57;8.10;79.30
33271;DHT22;53180;51.344;6.152;2023-05-19T04:07:25;8.10;79.30
33271;DHT22;53180;51.344;6.152;2023-05-19T04:09:54;8.10;79.50
33271;DHT22;53180;51.344;6.152;2023-05-19T04:12:22;8.10;79.40
33271;DHT22;53180;51.344;6.152;2023-05-19T04:14:50;8.20;79.50
33271;DHT22;53180;51.344;6.152;2023-05-19T04:17:19;8.20;79.60
33271;DHT22;53180;51.344;6.152;2023-05-19T04:19:50;8.20;79.60
33271;DHT22;53180;51.344;6.152;2023-05-19T04:22:19;8.20;79.50
33271;DHT22;53180;51.344;6.152;2023-05-19T04:24:47;8.20;79.50
33271;DHT22;53180;51.344;6.152;2023-05-19T04:27:16;8.30;79.60
33271;DHT22;53180;51.344;6.152;2023-05-19T04:29:44;8.30;79.50
33271;DHT22;53180;51.344;6.152;2023-05-19T04:32:14;8.30;79.50
33271;DHT22;53180;51.344;6.152;2023-05-19T04:34:44;8.30;79.30
33271;DHT22;53180;51.344;6.152;2023-05-19T04:37:13;8.30;79.30
33271;DHT22;53180;51.344;6.152;2023-05-19T04:39:43;8.40;79.80
33271;DHT22;53180;51.344;6.152;2023-05-19T04:42:12;8.40;79.80
33271;DHT22;53180;51.344;6.152;2023-05-19T04:44:40;8.50;79.90
33271;DHT22;53180;51.344;6.152;2023-05-19T04:47:09;8.60;79.90
33271;DHT22;53180;51.344;6.152;2023-05-19T04:49:37;8.60;79.80
33271;DHT22;53180;51.344;6.152;2023-05-19T04:52:06;8.70;79.40
33271;DHT22;53180;51.344;6.152;2023-05-19T04:54:38;8.70;79.50
33271;DHT22;53180;51.344;6.152;2023-05-19T04:57:07;8.80;79.50
33271;DHT22;53180;51.344;6.152;2023-05-19T04:59:36;8.80;79.30
33271;DHT22;53180;51.344;6.152;2023-05-19T05:02:05;8.90;79.60
33271;DHT22;53180;51.344;6.152;2023-05-19T05:04:33;9.00;79.60
33271;DHT22;53180;51.344;6.152;2023-05-19T05:07:02;9.10;79.30
33271;DHT22;53180;51.344;6.152;2023-05-19T05:09:30;9.10;79.10
33271;DHT22;53180;51.344;6.152;2023-05-19T05:12:01;9.20;78.90
33271;DHT22;53180;51.344;6.152;2023-05-19T05:14:30;9.30;78.80
33271;DHT22;53180;51.344;6.152;2023-05-19T05:17:00;9.40;78.80
33271;DHT22;53180;51.344;6.152;2023-05-19T05:19:29;9.50;78.90
33271;DHT22;53180;51.344;6.152;2023-05-19T05:21:58;9.60;78.90
33271;DHT22;53180;51.344;6.152;2023-05-19T05:24:27;9.70;78.60
33271;DHT22;53180;51.344;6.152;2023-05-19T05:26:56;9.80;78.40
33271;DHT22;53180;51.344;6.152;2023-05-19T05:29:26;9.90;78.60
33271;DHT22;53180;51.344;6.152;2023-05-19T05:31:55;9.90;78.10
33271;DHT22;53180;51.344;6.152;2023-05-19T05:34:23;9.90;78.00
33271;DHT22;53180;51.344;6.152;2023-05-19T05:36:52;10.00;78.10
33271;DHT22;53180;51.344;6.152;2023-05-19T05:39:20;10.10;78.10
33271;DHT22;53180;51.344;6.152;2023-05-19T05:41:49;10.20;77.90
33271;DHT22;53180;51.344;6.152;2023-05-19T05:44:17;10.30;77.70
33271;DHT22;53180;51.344;6.152;2023-05-19T05:46:48;10.40;77.50
33271;DHT22;53180;51.344;6.152;2023-05-19T05:49:17;10.40;77.20
33271;DHT22;53180;51.344;6.152;2023-05-19T05:51:47;10.50;77.30
33271;DHT22;53180;51.344;6.152;2023-05-19T05:54:31;10.60;77.00
33271;DHT22;53180;51.344;6.152;2023-05-19T05:57:00;10.70;76.90
33271;DHT22;53180;51.344;6.152;2023-05-19T05:59:30;10.80;76.80
33271;DHT22;53180;51.344;6.152;2023-05-19T06:02:01;10.90;76.20
33271;DHT22;53180;51.344;6.152;2023-05-19T06:04:29;11.00;76.30
33271;DHT22;53180;51.344;6.152;2023-05-19T06:06:58;11.10;75.50
33271;DHT22;53180;51.344;6.152;2023-05-19T06:09:27;11.20;75.10
33271;DHT22;53180;51.344;6.152;2023-05-19T06:11:57;11.20;75.10
33271;DHT22;53180;51.344;6.152;2023-05-19T06:14:26;11.30;75.00
33271;DHT22;53180;51.344;6.152;2023-05-19T06:16:54;11.30;74.80
33271;DHT22;53180;51.344;6.152;2023-05-19T06:19:24;11.40;73.90
33271;DHT22;53180;51.344;6.152;2023-05-19T06:21:52;11.50;73.90
33271;DHT22;53180;51.344;6.152;2023-05-19T06:24:21;11.50;73.40
33271;DHT22;53180;51.344;6.152;2023-05-19T06:26:49;11.60;74.00
33271;DHT22;53180;51.344;6.152;2023-05-19T06:29:17;11.60;73.20
33271;DHT22;53180;51.344;6.152;2023-05-19T06:31:46;11.60;73.30
33271;DHT22;53180;51.344;6.152;2023-05-19T06:34:14;11.60;72.90
33271;DHT22;53180;51.344;6.152;2023-05-19T06:36:45;11.70;73.60
33271;DHT22;53180;51.344;6.152;2023-05-19T06:39:13;11.70;73.90
33271;DHT22;53180;51.344;6.152;2023-05-19T06:41:42;11.80;73.60
33271;DHT22;53180;51.344;6.152;2023-05-19T06:44:11;11.90;73.70
33271;DHT22;53180;51.344;6.152;2023-05-19T06:46:40;11.90;73.10
33271;DHT22;53180;51.344;6.152;2023-05-19T06:49:10;12.00;73.70
33271;DHT22;53180;51.344;6.152;2023-05-19T06:51:38;12.00;73.40
33271;DHT22;53180;51.344;6.152;2023-05-19T06:54:08;12.10;73.20
33271;DHT22;53180;51.344;6.152;2023-05-19T06:56:38;12.20;72.50
33271;DHT22;53180;51.344;6.152;2023-05-19T06:59:07;12.30;72.30
33271;DHT22;53180;51.344;6.152;2023-05-19T07:01:35;12.40;72.00
33271;DHT22;53180;51.344;6.152;2023-05-19T07:04:03;12.50;72.20
33271;DHT22;53180;51.344;6.152;2023-05-19T07:06:32;12.70;71.10
33271;DHT22;53180;51.344;6.152;2023-05-19T07:09:01;12.70;71.40
33271;DHT22;53180;51.344;6.152;2023-05-19T07:11:32;12.80;71.50
33271;DHT22;53180;51.344;6.152;2023-05-19T07:14:01;12.90;71.30
33271;DHT22;53180;51.344;6.152;2023-05-19T07:16:29;13.10;71.10
33271;DHT22;53180;51.344;6.152;2023-05-19T07:18:58;13.10;70.60
33271;DHT22;53180;51.344;6.152;2023-05-19T07:21:26;13.20;70.80
33271;DHT22;53180;51.344;6.152;2023-05-19T07:23:54;13.30;70.80
33271;DHT22;53180;51.344;6.152;2023-05-19T07:26:22;13.50;68.80
33271;DHT22;53180;51.344;6.152;2023-05-19T07:28:53;13.60;69.10
33271;DHT22;53180;51.344;6.152;2023-05-19T07:31:22;13.70;68.50
33271;DHT22;53180;51.344;6.152;2023-05-19T07:33:50;13.70;69.10
33271;DHT22;53180;51.344;6.152;2023-05-19T07:36:20;13.90;69.10
33271;DHT22;53180;51.344;6.152;2023-05-19T07:38:49;14.00;68.50
33271;DHT22;53180;51.344;6.152;2023-05-19T07:41:24;14.10;67.40
33271;DHT22;53180;51.344;6.152;2023-05-19T07:43:54;14.20;67.20
33271;DHT22;53180;51.344;6.152;2023-05-19T07:46:23;14.20;67.60
33271;DHT22;53180;51.344;6.152;2023-05-19T07:48:51;14.30;67.00
33271;DHT22;53180;51.344;6.152;2023-05-19T07:51:20;14.40;67.70
33271;DHT22;53180;51.344;6.152;2023-05-19T07:53:48;14.40;67.40
33271;DHT22;53180;51.344;6.152;2023-05-19T07:56:17;14.60;66.40
33271;DHT22;53180;51.344;6.152;2023-05-19T07:58:45;14.70;67.60
33271;DHT22;53180;51.344;6.152;2023-05-19T08:01:15;14.70;67.10
33271;DHT22;53180;51.344;6.152;2023-05-19T08:03:43;14.80;67.10
33271;DHT22;53180;51.344;6.152;2023-05-19T08:06:12;14.90;67.50
33271;DHT22;53180;51.344;6.152;2023-05-19T08:08:40;14.90;66.20
33271;DHT22;53180;51.344;6.152;2023-05-19T08:11:12;15.00;65.50
33271;DHT22;53180;51.344;6.152;2023-05-19T08:13:40;15.10;64.90
33271;DHT22;53180;51.344;6.152;2023-05-19T08:16:08;15.20;65.10
33271;DHT22;53180;51.344;6.152;2023-05-19T08:18:38;15.30;64.90
33271;DHT22;53180;51.344;6.152;2023-05-19T08:21:06;15.30;64.60
33271;DHT22;53180;51.344;6.152;2023-05-19T08:23:35;15.40;63.90
33271;DHT22;53180;51.344;6.152;2023-05-19T08:26:04;15.50;64.40
33271;DHT22;53180;51.344;6.152;2023-05-19T08:28:32;15.70;63.00
33271;DHT22;53180;51.344;6.152;2023-05-19T08:31:01;15.70;62.10
33271;DHT22;53180;51.344;6.152;2023-05-19T08:33:29;15.70;62.70
33271;DHT22;53180;51.344;6.152;2023-05-19T08:35:59;15.80;63.00
33271;DHT22;53180;51.344;6.152;2023-05-19T08:38:27;16.00;62.20
33271;DHT22;53180;51.344;6.152;2023-05-19T08:40:56;16.00;61.00
33271;DHT22;53180;51.344;6.152;2023-05-19T08:43:25;16.10;60.60
33271;DHT22;53180;51.344;6.152;2023-05-19T08:45:54;16.10;62.00
33271;DHT22;53180;51.344;6.152;2023-05-19T08:48:22;16.20;62.10
33271;DHT22;53180;51.344;6.152;2023-05-19T08:50:57;16.20;61.60
33271;DHT22;53180;51.344;6.152;2023-05-19T08:53:36;16.30;60.90
33271;DHT22;53180;51.344;6.152;2023-05-19T08:56:11;16.40;61.20
33271;DHT22;53180;51.344;6.152;2023-05-19T08:58:42;16.40;60.30
33271;DHT22;53180;51.344;6.152;2023-05-19T09:01:13;16.50;60.10
33271;DHT22;53180;51.344;6.152;2023-05-19T09:03:43;16.60;59.60
33271;DHT22;53180;51.344;6.152;2023-05-19T09:06:19;16.70;59.20
33271;DHT22;53180;51.344;6.152;2023-05-19T09:08:48;16.70;57.50
33271;DHT22;53180;51.344;6.152;2023-05-19T09:11:16;16.90;57.80
33271;DHT22;53180;51.344;6.152;2023-05-19T09:13:52;16.90;59.20
33271;DHT22;53180;51.344;6.152;2023-05-19T09:16:20;16.90;59.40
33271;DHT22;53180;51.344;6.152;2023-05-19T09:18:56;17.10;58.30
33271;DHT22;53180;51.344;6.152;2023-05-19T09:21:28;17.20;56.50
33271;DHT22;53180;51.344;6.152;2023-05-19T09:23:57;17.20;57.40
33271;DHT22;53180;51.344;6.152;2023-05-19T09:26:35;17.30;55.70
33271;DHT22;53180;51.344;6.152;2023-05-19T09:29:11;17.30;55.10
33271;DHT22;53180;51.344;6.152;2023-05-19T09:31:47;17.00;55.50
33271;DHT22;53180;51.344;6.152;2023-05-19T09:34:17;17.10;55.50
33271;DHT22;53180;51.344;6.152;2023-05-19T09:36:48;17.30;55.50
33271;DHT22;53180;51.344;6.152;2023-05-19T09:39:19;17.40;55.60
33271;DHT22;53180;51.344;6.152;2023-05-19T09:41:50;17.70;55.20
33271;DHT22;53180;51.344;6.152;2023-05-19T09:44:22;17.70;54.20
33271;DHT22;53180;51.344;6.152;2023-05-19T09:46:55;17.80;54.40
33271;DHT22;53180;51.344;6.152;2023-05-19T09:49:25;17.80;54.40
33271;DHT22;53180;51.344;6.152;2023-05-19T09:51:57;18.00;52.60
33271;DHT22;53180;51.344;6.152;2023-05-19T09:54:27;17.90;49.40
33271;DHT22;53180;51.344;6.152;2023-05-19T09:56:59;18.00;52.20
33271;DHT22;53180;51.344;6.152;2023-05-19T09:59:29;18.10;53.00
33271;DHT22;53180;51.344;6.152;2023-05-19T10:02:00;18.20;52.20
33271;DHT22;53180;51.344;6.152;2023-05-19T10:04:29;18.20;52.60
33271;DHT22;53180;51.344;6.152;2023-05-19T10:07:00;18.40;53.00
33271;DHT22;53180;51.344;6.152;2023-05-19T10:09:32;18.50;50.70
33271;DHT22;53180;51.344;6.152;2023-05-19T10:12:01;18.50;49.10
33271;DHT22;53180;51.344;6.152;2023-05-19T10:14:30;18.50;49.80
33271;DHT22;53180;51.344;6.152;2023-05-19T10:16:59;18.60;49.40
33271;DHT22;53180;51.344;6.152;2023-05-19T10:19:27;18.60;48.70
33271;DHT22;53180;51.344;6.152;2023-05-19T10:21:56;18.60;49.50
33271;DHT22;53180;51.344;6.152;2023-05-19T10:24:26;18.70;49.70
33271;DHT22;53180;51.344;6.152;2023-05-19T10:26:57;18.80;48.80
33271;DHT22;53180;51.344;6.152;2023-05-19T10:29:30;18.80;48.20
33271;DHT22;53180;51.344;6.152;2023-05-19T10:32:05;18.80;47.80
33271;DHT22;53180;51.344;6.152;2023-05-19T10:34:58;18.90;47.70
33271;DHT22;53180;51.344;6.152;2023-05-19T10:37:44;18.80;46.70
33271;DHT22;53180;51.344;6.152;2023-05-19T10:40:22;19.00;48.00
33271;DHT22;53180;51.344;6.152;2023-05-19T10:43:07;19.00;48.30
33271;DHT22;53180;51.344;6.152;2023-05-19T10:45:47;19.10;49.40
33271;DHT22;53180;51.344;6.152;2023-05-19T10:48:16;19.20;49.30
33271;DHT22;53180;51.344;6.152;2023-05-19T10:50:46;19.20;47.00
33271;DHT22;53180;51.344;6.152;2023-05-19T10:53:16;19.00;49.20
33271;DHT22;53180;51.344;6.152;2023-05-19T10:55:50;19.00;46.80
33271;DHT22;53180;51.344;6.152;2023-05-19T10:58:39;19.10;47.90
33271;DHT22;53180;51.344;6.152;2023-05-19T11:01:17;19.40;47.00
33271;DHT22;53180;51.344;6.152;2023-05-19T11:03:47;19.40;47.80
33271;DHT22;53180;51.344;6.152;2023-05-19T11:06:24;19.60;46.30
33271;DHT22;53180;51.344;6.152;2023-05-19T11:08:57;19.70;47.80
33271;DHT22;53180;51.344;6.152;2023-05-19T11:11:44;19.80;47.60
33271;DHT22;53180;51.344;6.152;2023-05-19T11:14:14;19.60;49.70
33271;DHT22;53180;51.344;6.152;2023-05-19T11:16:48;19.70;48.30
33271;DHT22;53180;51.344;6.152;2023-05-19T11:19:19;19.80;48.60
33271;DHT22;53180;51.344;6.152;2023-05-19T11:21:53;20.20;45.40
33271;DHT22;53180;51.344;6.152;2023-05-19T11:24:35;20.00;46.50
33271;DHT22;53180;51.344;6.152;2023-05-19T11:27:22;20.00;45.80
33271;DHT22;53180;51.344;6.152;2023-05-19T11:29:53;20.20;46.20
33271;DHT22;53180;51.344;6.152;2023-05-19T11:32:26;20.20;45.20
33271;DHT22;53180;51.344;6.152;2023-05-19T11:34:56;20.20;46.30
33271;DHT22;53180;51.344;6.152;2023-05-19T11:37:24;20.10;47.10
33271;DHT22;53180;51.344;6.152;2023-05-19T11:39:54;19.80;47.40
33271;DHT22;53180;51.344;6.152;2023-05-19T11:42:24;19.90;48.60
33271;DHT22;53180;51.344;6.152;2023-05-19T11:44:55;20.00;46.30
33271;DHT22;53180;51.344;6.152;2023-05-19T11:47:23;20.00;47.10
33271;DHT22;53180;51.344;6.152;2023-05-19T11:49:53;20.00;47.60
33271;DHT22;53180;51.344;6.152;2023-05-19T11:52:23;20.00;46.20
33271;DHT22;53180;51.344;6.152;2023-05-19T11:54:53;19.80;46.90
33271;DHT22;53180;51.344;6.152;2023-05-19T11:57:23;19.70;46.90
33271;DHT22;53180;51.344;6.152;2023-05-19T11:59:52;19.80;46.80
33271;DHT22;53180;51.344;6.152;2023-05-19T12:02:23;19.80;45.60
33271;DHT22;53180;51.344;6.152;2023-05-19T12:04:53;19.80;47.10
33271;DHT22;53180;51.344;6.152;2023-05-19T12:07:22;19.60;47.10
33271;DHT22;53180;51.344;6.152;2023-05-19T12:09:52;19.70;46.80
33271;DHT22;53180;51.344;6.152;2023-05-19T12:12:23;19.70;47.60
33271;DHT22;53180;51.344;6.152;2023-05-19T12:14:52;19.70;46.60
33271;DHT22;53180;51.344;6.152;2023-05-19T12:17:20;19.80;46.60
33271;DHT22;53180;51.344;6.152;2023-05-19T12:19:50;19.70;47.50
33271;DHT22;53180;51.344;6.152;2023-05-19T12:22:20;19.80;47.00
33271;DHT22;53180;51.344;6.152;2023-05-19T12:24:49;19.70;47.30
33271;DHT22;53180;51.344;6.152;2023-05-19T12:27:19;19.70;46.20
33271;DHT22;53180;51.344;6.152;2023-05-19T12:29:52;20.00;45.40
33271;DHT22;53180;51.344;6.152;2023-05-19T12:32:22;19.80;47.00
33271;DHT22;53180;51.344;6.152;2023-05-19T12:34:54;19.80;46.40
33271;DHT22;53180;51.344;6.152;2023-05-19T12:37:25;19.80;46.70
33271;DHT22;53180;51.344;6.152;2023-05-19T12:39:56;19.60;46.30
33271;DHT22;53180;51.344;6.152;2023-05-19T12:42:26;19.70;47.80
33271;DHT22;53180;51.344;6.152;2023-05-19T12:44:59;19.90;46.20
33271;DHT22;53180;51.344;6.152;2023-05-19T12:47:30;19.80;47.60
33271;DHT22;53180;51.344;6.152;2023-05-19T12:50:01;19.80;47.40
33271;DHT22;53180;51.344;6.152;2023-05-19T12:52:33;19.90;47.30
33271;DHT22;53180;51.344;6.152;2023-05-19T12:55:08;19.90;46.50
33271;DHT22;53180;51.344;6.152;2023-05-19T12:57:39;19.80;47.00
33271;DHT22;53180;51.344;6.152;2023-05-19T13:00:13;19.80;46.60
33271;DHT22;53180;51.344;6.152;2023-05-19T13:02:57;19.70;46.90
33271;DHT22;53180;51.344;6.152;2023-05-19T13:05:29;19.60;48.10
33271;DHT22;53180;51.344;6.152;2023-05-19T13:08:00;19.80;48.70
33271;DHT22;53180;51.344;6.152;2023-05-19T13:10:30;19.90;46.70
33271;DHT22;53180;51.344;6.152;2023-05-19T13:12:59;19.80;46.90
33271;DHT22;53180;51.344;6.152;2023-05-19T13:15:31;19.80;46.40
33271;DHT22;53180;51.344;6.152;2023-05-19T13:18:04;19.90;46.20
33271;DHT22;53180;51.344;6.152;2023-05-19T13:20:34;19.70;46.60
33271;DHT22;53180;51.344;6.152;2023-05-19T13:23:03;19.70;46.60
33271;DHT22;53180;51.344;6.152;2023-05-19T13:25:33;19.70;47.40
33271;DHT22;53180;51.344;6.152;2023-05-19T13:28:02;19.80;47.90
33271;DHT22;53180;51.344;6.152;2023-05-19T13:30:33;19.70;47.30
33271;DHT22;53180;51.344;6.152;2023-05-19T13:33:04;19.80;48.20
33271;DHT22;53180;51.344;6.152;2023-05-19T13:35:33;19.70;47.80
33271;DHT22;53180;51.344;6.152;2023-05-19T13:38:04;19.70;47.50
33271;DHT22;53180;51.344;6.152;2023-05-19T13:40:34;19.80;45.30
33271;DHT22;53180;51.344;6.152;2023-05-19T13:43:05;19.80;46.10
33271;DHT22;53180;51.344;6.152;2023-05-19T13:45:36;19.80;46.40
33271;DHT22;53180;51.344;6.152;2023-05-19T13:48:05;19.70;47.40
33271;DHT22;53180;51.344;6.152;2023-05-19T13:50:34;19.80;46.10
33271;DHT22;53180;51.344;6.152;2023-05-19T13:53:02;19.90;45.50
33271;DHT22;53180;51.344;6.152;2023-05-19T13:55:31;19.80;45.70
33271;DHT22;53180;51.344;6.152;2023-05-19T13:57:59;19.80;46.60
33271;DHT22;53180;51.344;6.152;2023-05-19T14:00:29;19.70;45.40
33271;DHT22;53180;51.344;6.152;2023-05-19T14:03:00;19.70;47.20
33271;DHT22;53180;51.344;6.152;2023-05-19T14:05:28;19.70;47.20
33271;DHT22;53180;51.344;6.152;2023-05-19T14:07:57;19.60;46.40
33271;DHT22;53180;51.344;6.152;2023-05-19T14:10:29;19.70;47.00
33271;DHT22;53180;51.344;6.152;2023-05-19T14:12:57;19.60;47.90
33271;DHT22;53180;51.344;6.152;2023-05-19T14:15:29;19.50;47.70
33271;DHT22;53180;51.344;6.152;2023-05-19T14:18:01;19.70;47.50
33271;DHT22;53180;51.344;6.152;2023-05-19T14:20:31;19.70;47.80
33271;DHT22;53180;51.344;6.152;2023-05-19T14:23:01;19.70;48.20
33271;DHT22;53180;51.344;6.152;2023-05-19T14:25:30;19.70;44.30
33271;DHT22;53180;51.344;6.152;2023-05-19T14:27:58;19.60;47.00
33271;DHT22;53180;51.344;6.152;2023-05-19T14:30:26;19.60;47.30
33271;DHT22;53180;51.344;6.152;2023-05-19T14:32:55;19.70;46.80
33271;DHT22;53180;51.344;6.152;2023-05-19T14:35:26;19.70;45.50
33271;DHT22;53180;51.344;6.152;2023-05-19T14:37:54;19.60;46.90
33271;DHT22;53180;51.344;6.152;2023-05-19T14:40:22;19.60;45.90
33271;DHT22;53180;51.344;6.152;2023-05-19T14:42:51;19.60;45.80
33271;DHT22;53180;51.344;6.152;2023-05-19T14:45:19;19.50;44.10
33271;DHT22;53180;51.344;6.152;2023-05-19T14:47:47;19.60;46.20
33271;DHT22;53180;51.344;6.152;2023-05-19T14:50:16;19.60;46.10
33271;DHT22;53180;51.344;6.152;2023-05-19T14:52:45;19.60;44.00
33271;DHT22;53180;51.344;6.152;2023-05-19T14:55:14;19.50;46.10
33271;DHT22;53180;51.344;6.152;2023-05-19T14:57:42;19.40;47.40
33271;DHT22;53180;51.344;6.152;2023-05-19T15:00:11;19.50;47.30
33271;DHT22;53180;51.344;6.152;2023-05-19T15:02:40;19.50;46.90
33271;DHT22;53180;51.344;6.152;2023-05-19T15:05:09;19.50;46.70
33271;DHT22;53180;51.344;6.152;2023-05-19T15:07:39;19.40;46.90
33271;DHT22;53180;51.344;6.152;2023-05-19T15:10:09;19.40;47.50
33271;DHT22;53180;51.344;6.152;2023-05-19T15:12:37;19.50;44.20
33271;DHT22;53180;51.344;6.152;2023-05-19T15:15:07;19.50;44.90
33271;DHT22;53180;51.344;6.152;2023-05-19T15:17:36;19.40;45.70
33271;DHT22;53180;51.344;6.152;2023-05-19T15:20:05;19.40;46.40
33271;DHT22;53180;51.344;6.152;2023-05-19T15:22:35;19.40;45.10
33271;DHT22;53180;51.344;6.152;2023-05-19T15:25:08;19.30;43.80
33271;DHT22;53180;51.344;6.152;2023-05-19T15:27:37;19.20;46.00
33271;DHT22;53180;51.344;6.152;2023-05-19T15:30:06;19.10;46.40
33271;DHT22;53180;51.344;6.152;2023-05-19T15:32:37;19.20;46.00
33271;DHT22;53180;51.344;6.152;2023-05-19T15:35:07;19.20;46.70
33271;DHT22;53180;51.344;6.152;2023-05-19T15:37:35;19.30;45.30
33271;DHT22;53180;51.344;6.152;2023-05-19T15:40:05;19.30;44.10
33271;DHT22;53180;51.344;6.152;2023-05-19T15:42:37;19.20;45.00
33271;DHT22;53180;51.344;6.152;2023-05-19T15:45:06;19.20;46.40
33271;DHT22;53180;51.344;6.152;2023-05-19T15:47:36;19.20;45.80
33271;DHT22;53180;51.344;6.152;2023-05-19T15:50:05;19.10;45.60
33271;DHT22;53180;51.344;6.152;2023-05-19T15:52:34;19.10;46.50
33271;DHT22;53180;51.344;6.152;2023-05-19T15:55:03;19.10;46.90